Time,TemperatureF,DewpointF,PressureIn,WindDirection,WindDirectionDegrees,WindSpeedMPH,WindSpeedGustMPH,Humidity,HourlyPrecipIn,Conditions,Clouds,dailyrainin,SoftwareType,DateUTC
2013-11-14 00:01:00,31.1,13.2,30.34,North,0,0.0,0.0,47,0.00,,,0.00,WUHU216HW,2013-11-14 05:01:00,
2013-11-14 00:02:00,31.1,13.2,30.34,North,0,0.0,0.0,47,0.00,,,0.00,WUHU216HW,2013-11-14 05:02:00,
2013-11-14 00:03:00,31.1,13.2,30.34,North,0,0.0,0.0,47,0.00,,,0.00,WUHU216HW,2013-11-14 05:03:00,
2013-11-14 00:08:00,31.2,12.3,30.34,North,0,0.0,0.0,45,0.00,,,0.00,WUHU216HW,2013-11-14 05:08:00,
2013-11-14 00:13:00,31.8,12.8,30.34,North,0,0.0,0.0,45,0.00,,,0.00,WUHU216HW,2013-11-14 05:13:00,
2013-11-14 00:18:00,32.1,12.6,30.34,North,0,0.0,0.0,44,0.00,,,0.00,WUHU216HW,2013-11-14 05:18:00,
2013-11-14 00:23:00,32.7,13.1,30.34,North,0,0.0,0.0,44,0.00,,,0.00,WUHU216HW,2013-11-14 05:23:00,
2013-11-14 00:28:00,32.5,13.0,30.34,North,0,0.0,0.0,44,0.00,,,0.00,WUHU216HW,2013-11-14 05:28:00,
2013-11-14 00:33:00,32.3,12.8,30.33,North,0,0.0,0.0,44,0.00,,,0.00,WUHU216HW,2013-11-14 05:33:00,
2013-11-14 00:38:00,32.1,12.6,30.33,North,0,0.0,0.0,44,0.00,,,0.00,WUHU216HW,2013-11-14 05:38:00,
2013-11-14 00:43:00,32.0,12.5,30.33,North,0,0.0,0.0,44,0.00,,,0.00,WUHU216HW,2013-11-14 05:43:00,
2013-11-14 00:48:00,32.1,12.6,30.33,North,0,0.0,0.0,44,0.00,,,0.00,WUHU216HW,2013-11-14 05:48:00,
2013-11-14 00:53:00,32.1,12.6,30.33,North,0,0.0,0.0,44,0.00,,,0.00,WUHU216HW,2013-11-14 05:53:00,
2013-11-14 00:58:00,32.3,12.2,30.32,North,0,0.0,0.0,43,0.00,,,0.00,WUHU216HW,2013-11-14 05:58:00,
2013-11-14 01:03:00,32.7,12.6,30.32,North,0,0.0,0.0,43,0.00,,,0.00,WUHU216HW,2013-11-14 06:03:00,
2013-11-14 01:08:00,32.9,12.8,30.32,North,0,0.0,0.0,43,0.00,,,0.00,WUHU216HW,2013-11-14 06:08:00,
2013-11-14 01:13:00,32.9,12.2,30.33,North,0,0.0,0.0,42,0.00,,,0.00,WUHU216HW,2013-11-14 06:13:00,
2013-11-14 01:18:00,33.4,12.7,30.32,North,0,0.0,0.0,42,0.00,,,0.00,WUHU216HW,2013-11-14 06:18:00,
2013-11-14 01:23:00,33.6,12.9,30.32,North,0,0.0,0.0,42,0.00,,,0.00,WUHU216HW,2013-11-14 06:23:00,
2013-11-14 01:28:00,33.6,12.9,30.32,North,0,0.0,0.0,42,0.00,,,0.00,WUHU216HW,2013-11-14 06:28:00,
2013-11-14 01:33:00,33.4,13.2,30.31,North,0,0.0,0.0,43,0.00,,,0.00,WUHU216HW,2013-11-14 06:33:00,
2013-11-14 01:38:00,33.0,12.3,30.32,North,0,0.0,0.0,42,0.00,,,0.00,WUHU216HW,2013-11-14 06:38:00,
2013-11-14 01:43:00,33.0,12.3,30.31,North,0,0.0,0.0,42,0.00,,,0.00,WUHU216HW,2013-11-14 06:43:00,
2013-11-14 01:49:00,33.0,11.8,30.31,North,0,0.0,0.0,41,0.00,,,0.00,WUHU216HW,2013-11-14 06:49:00,
2013-11-14 01:54:00,33.0,12.3,30.31,North,0,0.0,0.0,42,0.00,,,0.00,WUHU216HW,2013-11-14 06:54:00,
2013-11-14 01:59:00,33.0,12.3,30.31,North,0,0.0,0.0,42,0.00,,,0.00,WUHU216HW,2013-11-14 06:59:00,
2013-11-14 02:03:00,33.0,11.8,30.30,North,0,0.0,0.0,41,0.00,,,0.00,WUHU216HW,2013-11-14 07:03:00,
2013-11-14 02:09:00,33.6,12.3,30.30,North,0,0.0,0.0,41,0.00,,,0.00,WUHU216HW,2013-11-14 07:09:00,
2013-11-14 02:14:00,34.3,12.4,30.30,North,0,0.0,0.0,40,0.00,,,0.00,WUHU216HW,2013-11-14 07:14:00,
2013-11-14 02:19:00,34.3,11.8,30.30,North,0,0.0,0.0,39,0.00,,,0.00,WUHU216HW,2013-11-14 07:19:00,
2013-11-14 02:24:00,35.9,10.8,30.30,North,0,0.0,0.0,35,0.00,,,0.00,WUHU216HW,2013-11-14 07:24:00,
2013-11-14 02:29:00,36.6,11.4,30.29,North,0,0.0,0.0,35,0.00,,,0.00,WUHU216HW,2013-11-14 07:29:00,
2013-11-14 02:34:00,36.8,12.2,30.30,North,0,0.0,0.0,36,0.00,,,0.00,WUHU216HW,2013-11-14 07:34:00,
2013-11-14 02:39:00,36.5,11.9,30.29,North,0,0.0,0.0,36,0.00,,,0.00,WUHU216HW,2013-11-14 07:39:00,
2013-11-14 02:44:00,36.3,11.8,30.29,North,0,0.0,0.0,36,0.00,,,0.00,WUHU216HW,2013-11-14 07:44:00,
2013-11-14 02:49:00,36.3,10.5,30.29,North,0,0.0,0.0,34,0.00,,,0.00,WUHU216HW,2013-11-14 07:49:00,
2013-11-14 02:54:00,36.8,11.6,30.29,North,0,0.0,0.0,35,0.00,,,0.00,WUHU216HW,2013-11-14 07:54:00,
2013-11-14 02:59:00,36.6,12.0,30.29,North,0,0.0,0.0,36,0.00,,,0.00,WUHU216HW,2013-11-14 07:59:00,
2013-11-14 03:04:00,35.9,11.4,30.29,North,0,0.0,0.0,36,0.00,,,0.00,WUHU216HW,2013-11-14 08:04:00,
2013-11-14 03:09:00,35.4,11.6,30.29,North,0,0.0,0.0,37,0.00,,,0.00,WUHU216HW,2013-11-14 08:09:00,
2013-11-14 03:15:00,34.8,11.7,30.29,North,0,0.0,0.0,38,0.00,,,0.00,WUHU216HW,2013-11-14 08:15:00,
2013-11-14 03:20:00,34.3,12.4,30.28,North,0,0.0,0.0,40,0.00,,,0.00,WUHU216HW,2013-11-14 08:20:00,
2013-11-14 03:25:00,33.2,12.0,30.29,North,0,0.0,0.0,41,0.00,,,0.00,WUHU216HW,2013-11-14 08:25:00,
2013-11-14 03:30:00,32.7,11.5,30.29,North,0,0.0,0.0,41,0.00,,,0.00,WUHU216HW,2013-11-14 08:30:00,
2013-11-14 03:35:00,32.3,11.7,30.28,North,0,0.0,0.0,42,0.00,,,0.00,WUHU216HW,2013-11-14 08:35:00,
2013-11-14 03:40:00,32.1,11.5,30.28,North,0,0.0,0.0,42,0.00,,,0.00,WUHU216HW,2013-11-14 08:40:00,
2013-11-14 03:45:00,32.1,11.0,30.28,North,0,0.0,0.0,41,0.00,,,0.00,WUHU216HW,2013-11-14 08:45:00,
2013-11-14 03:50:00,32.5,11.3,30.28,North,0,0.0,0.0,41,0.00,,,0.00,WUHU216HW,2013-11-14 08:50:00,
2013-11-14 03:55:00,33.2,12.0,30.28,North,0,0.0,0.0,41,0.00,,,0.00,WUHU216HW,2013-11-14 08:55:00,
2013-11-14 04:00:00,33.6,11.7,30.27,North,0,0.0,0.0,40,0.00,,,0.00,WUHU216HW,2013-11-14 09:00:00,
2013-11-14 04:06:00,34.3,11.8,30.27,North,0,0.0,0.0,39,0.00,,,0.00,WUHU216HW,2013-11-14 09:06:00,
2013-11-14 04:11:00,35.9,12.0,30.27,North,0,0.0,0.0,37,0.00,,,0.00,WUHU216HW,2013-11-14 09:11:00,
2013-11-14 04:16:00,36.6,11.4,30.27,North,0,0.0,0.0,35,0.00,,,0.00,WUHU216HW,2013-11-14 09:16:00,
2013-11-14 04:21:00,37.2,11.9,30.27,North,0,0.0,0.0,35,0.00,,,0.00,WUHU216HW,2013-11-14 09:21:00,
2013-11-14 04:26:00,37.0,11.7,30.27,North,0,0.0,0.0,35,0.00,,,0.00,WUHU216HW,2013-11-14 09:26:00,
2013-11-14 04:31:00,37.2,11.3,30.27,North,0,0.0,0.0,34,0.00,,,0.00,WUHU216HW,2013-11-14 09:31:00,
2013-11-14 04:36:00,37.4,11.4,30.27,North,0,0.0,0.0,34,0.00,,,0.00,WUHU216HW,2013-11-14 09:36:00,
2013-11-14 04:41:00,36.6,11.4,30.27,North,0,0.0,0.0,35,0.00,,,0.00,WUHU216HW,2013-11-14 09:41:00,
2013-11-14 04:46:00,36.6,10.7,30.26,North,0,0.0,0.0,34,0.00,,,0.00,WUHU216HW,2013-11-14 09:46:00,
2013-11-14 04:51:00,37.5,10.9,30.26,North,0,0.0,0.0,33,0.00,,,0.00,WUHU216HW,2013-11-14 09:51:00,
2013-11-14 04:56:00,37.9,11.2,30.26,North,0,0.0,0.0,33,0.00,,,0.00,WUHU216HW,2013-11-14 09:56:00,
2013-11-14 05:02:00,37.9,9.8,30.26,North,0,0.0,0.0,31,0.00,,,0.00,WUHU216HW,2013-11-14 10:02:00,
2013-11-14 05:07:00,37.9,9.8,30.26,North,0,0.0,0.0,31,0.00,,,0.00,WUHU216HW,2013-11-14 10:07:00,
2013-11-14 05:12:00,37.9,10.5,30.26,North,0,0.0,0.0,32,0.00,,,0.00,WUHU216HW,2013-11-14 10:12:00,
2013-11-14 05:17:00,37.9,11.2,30.27,North,0,0.0,0.0,33,0.00,,,0.00,WUHU216HW,2013-11-14 10:17:00,
2013-11-14 05:22:00,37.7,11.0,30.27,North,0,0.0,0.0,33,0.00,,,0.00,WUHU216HW,2013-11-14 10:22:00,
2013-11-14 05:27:00,37.5,10.9,30.28,North,0,0.0,0.0,33,0.00,,,0.00,WUHU216HW,2013-11-14 10:27:00,
2013-11-14 05:32:00,37.2,11.3,30.27,North,0,0.0,0.0,34,0.00,,,0.00,WUHU216HW,2013-11-14 10:32:00,
2013-11-14 05:37:00,36.8,10.9,30.27,North,0,0.0,0.0,34,0.00,,,0.00,WUHU216HW,2013-11-14 10:37:00,
2013-11-14 05:42:00,36.5,10.6,30.27,North,0,0.0,0.0,34,0.00,,,0.00,WUHU216HW,2013-11-14 10:42:00,
2013-11-14 05:47:00,36.1,10.9,30.27,North,0,0.0,0.0,35,0.00,,,0.00,WUHU216HW,2013-11-14 10:47:00,
2013-11-14 05:52:00,36.1,10.3,30.27,North,0,0.0,0.0,34,0.00,,,0.00,WUHU216HW,2013-11-14 10:52:00,
2013-11-14 05:57:00,36.6,9.4,30.26,North,0,0.0,0.0,32,0.00,,,0.00,WUHU216HW,2013-11-14 10:57:00,
2013-11-14 06:02:00,37.9,9.8,30.27,North,0,0.0,0.0,31,0.00,,,0.00,WUHU216HW,2013-11-14 11:02:00,
2013-11-14 06:07:00,38.1,10.0,30.27,North,0,0.0,0.0,31,0.00,,,0.00,WUHU216HW,2013-11-14 11:07:00,
2013-11-14 06:13:00,38.6,9.7,30.27,North,0,0.0,0.0,30,0.00,,,0.00,WUHU216HW,2013-11-14 11:13:00,
2013-11-14 06:18:00,39.3,10.3,30.27,North,0,0.0,0.0,30,0.00,,,0.00,WUHU216HW,2013-11-14 11:18:00,
2013-11-14 06:23:00,39.0,10.8,30.28,North,0,0.0,0.0,31,0.00,,,0.00,WUHU216HW,2013-11-14 11:23:00,
2013-11-14 06:28:00,38.8,10.6,30.27,North,0,0.0,0.0,31,0.00,,,0.00,WUHU216HW,2013-11-14 11:28:00,
2013-11-14 06:33:00,38.4,9.5,30.27,North,0,0.0,0.0,30,0.00,,,0.00,WUHU216HW,2013-11-14 11:33:00,
2013-11-14 06:38:00,38.8,9.9,30.27,North,0,0.0,0.0,30,0.00,,,0.00,WUHU216HW,2013-11-14 11:38:00,
2013-11-14 06:43:00,39.0,10.1,30.28,North,0,0.0,0.0,30,0.00,,,0.00,WUHU216HW,2013-11-14 11:43:00,
2013-11-14 06:48:00,39.3,9.6,30.28,North,0,0.0,0.0,29,0.00,,,0.00,WUHU216HW,2013-11-14 11:48:00,
2013-11-14 06:53:00,39.3,9.6,30.28,North,0,0.0,0.0,29,0.00,,,0.00,WUHU216HW,2013-11-14 11:53:00,
2013-11-14 06:59:00,39.3,9.6,30.28,North,0,0.0,0.0,29,0.00,,,0.00,WUHU216HW,2013-11-14 11:59:00,
2013-11-14 07:04:00,39.3,9.6,30.28,North,0,0.0,0.0,29,0.00,,,0.00,WUHU216HW,2013-11-14 12:04:00,
2013-11-14 07:09:00,39.3,9.6,30.28,North,0,0.0,0.0,29,0.00,,,0.00,WUHU216HW,2013-11-14 12:09:00,
2013-11-14 07:14:00,39.5,9.7,30.28,North,0,0.0,0.0,29,0.00,,,0.00,WUHU216HW,2013-11-14 12:14:00,
2013-11-14 07:19:00,39.9,9.3,30.28,North,0,0.0,0.0,28,0.00,,,0.00,WUHU216HW,2013-11-14 12:19:00,
2013-11-14 07:24:00,40.6,9.1,30.28,North,0,0.0,0.0,27,0.00,,,0.00,WUHU216HW,2013-11-14 12:24:00,
2013-11-14 07:29:00,41.0,9.5,30.28,North,0,0.0,0.0,27,0.00,,,0.00,WUHU216HW,2013-11-14 12:29:00,
2013-11-14 07:34:00,41.5,9.1,30.28,North,0,0.0,0.0,26,0.00,,,0.00,WUHU216HW,2013-11-14 12:34:00,
2013-11-14 07:39:00,41.5,9.9,30.28,North,0,0.0,0.0,27,0.00,,,0.00,WUHU216HW,2013-11-14 12:39:00,
2013-11-14 07:44:00,41.5,9.9,30.28,North,0,0.0,0.0,27,0.00,,,0.00,WUHU216HW,2013-11-14 12:44:00,
2013-11-14 07:49:00,41.5,9.9,30.28,North,0,0.0,0.0,27,0.00,,,0.00,WUHU216HW,2013-11-14 12:49:00,
2013-11-14 07:54:00,41.7,10.1,30.28,North,0,0.0,0.0,27,0.00,,,0.00,WUHU216HW,2013-11-14 12:54:00,
2013-11-14 07:59:00,42.0,9.5,30.28,North,0,0.0,0.0,26,0.00,,,0.00,WUHU216HW,2013-11-14 12:59:00,
2013-11-14 08:05:00,42.4,9.9,30.29,North,0,0.0,0.0,26,0.00,,,0.00,WUHU216HW,2013-11-14 13:05:00,
2013-11-14 08:10:00,42.6,10.9,30.28,North,0,0.0,0.0,27,0.00,,,0.00,WUHU216HW,2013-11-14 13:10:00,
2013-11-14 08:15:00,42.9,10.3,30.29,North,0,0.0,0.0,26,0.00,,,0.00,WUHU216HW,2013-11-14 13:15:00,
2013-11-14 08:20:00,43.3,11.5,30.29,North,0,0.0,0.0,27,0.00,,,0.00,WUHU216HW,2013-11-14 13:20:00,
2013-11-14 08:25:00,43.5,10.8,30.29,North,0,0.0,0.0,26,0.00,,,0.00,WUHU216HW,2013-11-14 13:25:00,
2013-11-14 08:30:00,43.8,11.1,30.29,North,0,0.0,0.0,26,0.00,,,0.00,WUHU216HW,2013-11-14 13:30:00,
2013-11-14 08:35:00,44.2,10.5,30.29,North,0,0.0,0.0,25,0.00,,,0.00,WUHU216HW,2013-11-14 13:35:00,
2013-11-14 08:40:00,44.7,11.0,30.29,North,0,0.0,0.0,25,0.00,,,0.00,WUHU216HW,2013-11-14 13:40:00,
2013-11-14 08:45:00,44.9,12.0,30.29,North,0,0.0,0.0,26,0.00,,,0.00,WUHU216HW,2013-11-14 13:45:00,
2013-11-14 08:50:00,45.1,11.3,30.29,North,0,0.0,0.0,25,0.00,,,0.00,WUHU216HW,2013-11-14 13:50:00,
2013-11-14 08:56:00,45.5,11.6,30.29,North,0,0.0,0.0,25,0.00,,,0.00,WUHU216HW,2013-11-14 13:56:00,
2013-11-14 09:00:00,46.0,11.2,30.29,North,0,0.0,0.0,24,0.00,,,0.00,WUHU216HW,2013-11-14 14:00:00,
2013-11-14 09:05:00,46.2,11.3,30.30,North,0,0.0,0.0,24,0.00,,,0.00,WUHU216HW,2013-11-14 14:05:00,
2013-11-14 09:11:00,46.5,11.6,30.29,North,0,0.0,0.0,24,0.00,,,0.00,WUHU216HW,2013-11-14 14:11:00,
2013-11-14 09:16:00,46.7,10.8,30.29,North,0,0.0,0.0,23,0.00,,,0.00,WUHU216HW,2013-11-14 14:16:00,
2013-11-14 09:21:00,46.9,11.9,30.29,North,0,0.0,0.0,24,0.00,,,0.00,WUHU216HW,2013-11-14 14:21:00,
2013-11-14 09:26:00,47.3,12.3,30.29,North,0,0.0,0.0,24,0.00,,,0.00,WUHU216HW,2013-11-14 14:26:00,
2013-11-14 09:31:00,47.6,12.5,30.29,North,0,0.0,0.0,24,0.00,,,0.00,WUHU216HW,2013-11-14 14:31:00,
2013-11-14 09:36:00,47.8,11.8,30.29,North,0,0.0,0.0,23,0.00,,,0.00,WUHU216HW,2013-11-14 14:36:00,
2013-11-14 09:41:00,48.0,12.9,30.29,North,0,0.0,0.0,24,0.00,,,0.00,WUHU216HW,2013-11-14 14:41:00,
2013-11-14 09:46:00,48.3,13.1,30.29,North,0,0.0,0.0,24,0.00,,,0.00,WUHU216HW,2013-11-14 14:46:00,
2013-11-14 09:47:00,48.3,13.1,30.29,North,0,0.0,0.0,24,0.00,,,0.00,WUHU216HW,2013-11-14 14:47:00,
2013-11-14 09:52:00,48.7,12.5,30.29,North,0,0.0,0.0,23,0.00,,,0.00,WUHU216HW,2013-11-14 14:52:00,
2013-11-14 09:57:00,48.9,12.7,30.29,North,0,0.0,0.0,23,0.00,,,0.00,WUHU216HW,2013-11-14 14:57:00,
2013-11-14 10:02:00,49.2,13.9,30.30,North,0,0.0,0.0,24,0.00,,,0.00,WUHU216HW,2013-11-14 15:02:00,
2013-11-14 10:07:00,49.6,14.2,30.29,North,0,0.0,0.0,24,0.00,,,0.00,WUHU216HW,2013-11-14 15:07:00,
2013-11-14 10:12:00,50.1,14.7,30.29,North,0,0.0,0.0,24,0.00,,,0.00,WUHU216HW,2013-11-14 15:12:00,
2013-11-14 10:17:00,50.3,14.8,30.29,North,0,0.0,0.0,24,0.00,,,0.00,WUHU216HW,2013-11-14 15:17:00,
2013-11-14 10:22:00,50.5,15.0,30.29,North,0,0.0,0.0,24,0.00,,,0.00,WUHU216HW,2013-11-14 15:22:00,
2013-11-14 10:27:00,50.9,15.3,30.28,North,0,0.0,0.0,24,0.00,,,0.00,WUHU216HW,2013-11-14 15:27:00,
2013-11-14 10:32:00,51.2,14.6,30.29,North,0,0.0,0.0,23,0.00,,,0.00,WUHU216HW,2013-11-14 15:32:00,
2013-11-14 10:37:00,51.4,13.8,30.28,North,0,0.0,0.0,22,0.00,,,0.00,WUHU216HW,2013-11-14 15:37:00,
2013-11-14 10:42:00,51.6,15.0,30.28,North,0,0.0,0.0,23,0.00,,,0.00,WUHU216HW,2013-11-14 15:42:00,
2013-11-14 10:47:00,51.8,14.1,30.28,North,0,0.0,0.0,22,0.00,,,0.00,WUHU216HW,2013-11-14 15:47:00,
2013-11-14 10:52:00,51.9,15.2,30.28,North,0,0.0,0.0,23,0.00,,,0.00,WUHU216HW,2013-11-14 15:52:00,
2013-11-14 10:57:00,52.3,14.6,30.28,North,0,0.0,0.0,22,0.00,,,0.00,WUHU216HW,2013-11-14 15:57:00,
2013-11-14 11:02:00,52.7,14.9,30.28,North,0,0.0,0.0,22,0.00,,,0.00,WUHU216HW,2013-11-14 16:02:00,
2013-11-14 11:07:00,52.8,15.0,30.28,North,0,0.0,0.0,22,0.00,,,0.00,WUHU216HW,2013-11-14 16:07:00,
2013-11-14 11:13:00,53.2,16.3,30.28,North,0,0.0,0.0,23,0.00,,,0.00,WUHU216HW,2013-11-14 16:13:00,
2013-11-14 11:18:00,53.4,16.5,30.28,North,0,0.0,0.0,23,0.00,,,0.00,WUHU216HW,2013-11-14 16:18:00,
2013-11-14 11:23:00,53.7,14.7,30.27,North,0,0.0,0.0,21,0.00,,,0.00,WUHU216HW,2013-11-14 16:23:00,
2013-11-14 11:28:00,53.9,14.9,30.27,North,0,0.0,0.0,21,0.00,,,0.00,WUHU216HW,2013-11-14 16:28:00,
2013-11-14 11:33:00,54.1,15.0,30.27,North,0,0.0,0.0,21,0.00,,,0.00,WUHU216HW,2013-11-14 16:33:00,
2013-11-14 11:38:00,54.3,15.2,30.27,North,0,0.0,0.0,21,0.00,,,0.00,WUHU216HW,2013-11-14 16:38:00,
2013-11-14 11:43:00,54.5,15.4,30.26,North,0,0.0,0.0,21,0.00,,,0.00,WUHU216HW,2013-11-14 16:43:00,
2013-11-14 11:48:00,54.6,16.5,30.25,North,0,0.0,0.0,22,0.00,,,0.00,WUHU216HW,2013-11-14 16:48:00,
2013-11-14 11:53:00,55.0,16.8,30.25,North,0,0.0,0.0,22,0.00,,,0.00,WUHU216HW,2013-11-14 16:53:00,
2013-11-14 11:58:00,55.2,16.0,30.25,North,0,0.0,0.0,21,0.00,,,0.00,WUHU216HW,2013-11-14 16:58:00,
2013-11-14 12:03:00,55.4,16.1,30.25,North,0,0.0,0.0,21,0.00,,,0.00,WUHU216HW,2013-11-14 17:03:00,
2013-11-14 12:08:00,55.7,16.4,30.25,North,0,0.0,0.0,21,0.00,,,0.00,WUHU216HW,2013-11-14 17:08:00,
2013-11-14 12:13:00,55.9,16.5,30.24,North,0,0.0,0.0,21,0.00,,,0.00,WUHU216HW,2013-11-14 17:13:00,
2013-11-14 12:18:00,55.9,15.4,30.24,North,0,0.0,0.0,20,0.00,,,0.00,WUHU216HW,2013-11-14 17:18:00,
2013-11-14 12:23:00,56.1,15.6,30.24,North,0,0.0,0.0,20,0.00,,,0.00,WUHU216HW,2013-11-14 17:23:00,
2013-11-14 12:28:00,56.3,15.8,30.23,North,0,0.0,0.0,20,0.00,,,0.00,WUHU216HW,2013-11-14 17:28:00,
2013-11-14 12:33:00,56.4,17.0,30.23,North,0,0.0,0.0,21,0.00,,,0.00,WUHU216HW,2013-11-14 17:33:00,
2013-11-14 12:38:00,56.6,16.0,30.23,North,0,0.0,0.0,20,0.00,,,0.00,WUHU216HW,2013-11-14 17:38:00,
2013-11-14 12:43:00,56.8,17.3,30.23,North,0,0.0,0.0,21,0.00,,,0.00,WUHU216HW,2013-11-14 17:43:00,
2013-11-14 12:48:00,56.8,17.3,30.23,North,0,0.0,0.0,21,0.00,,,0.00,WUHU216HW,2013-11-14 17:48:00,
2013-11-14 12:54:00,56.8,16.2,30.23,North,0,0.0,0.0,20,0.00,,,0.00,WUHU216HW,2013-11-14 17:54:00,
2013-11-14 12:58:00,57.0,16.3,30.23,North,0,0.0,0.0,20,0.00,,,0.00,WUHU216HW,2013-11-14 17:58:00,
2013-11-14 13:04:00,57.3,17.7,30.22,North,0,0.0,0.0,21,0.00,,,0.00,WUHU216HW,2013-11-14 18:04:00,
2013-11-14 13:09:00,57.7,18.0,30.23,North,0,0.0,0.0,21,0.00,,,0.00,WUHU216HW,2013-11-14 18:09:00,
2013-11-14 13:14:00,57.9,18.2,30.22,North,0,0.0,0.0,21,0.00,,,0.00,WUHU216HW,2013-11-14 18:14:00,
2013-11-14 13:19:00,57.7,18.0,30.22,North,0,0.0,0.0,21,0.00,,,0.00,WUHU216HW,2013-11-14 18:19:00,
2013-11-14 13:24:00,57.9,19.3,30.21,North,0,0.0,0.0,22,0.00,,,0.00,WUHU216HW,2013-11-14 18:24:00,
2013-11-14 13:29:00,58.1,19.4,30.21,North,0,0.0,0.0,22,0.00,,,0.00,WUHU216HW,2013-11-14 18:29:00,
2013-11-14 13:34:00,58.1,19.4,30.21,North,0,0.0,0.0,22,0.00,,,0.00,WUHU216HW,2013-11-14 18:34:00,
2013-11-14 13:39:00,58.2,18.5,30.20,North,0,0.0,0.0,21,0.00,,,0.00,WUHU216HW,2013-11-14 18:39:00,
2013-11-14 13:44:00,58.6,18.8,30.20,North,0,0.0,0.0,21,0.00,,,0.00,WUHU216HW,2013-11-14 18:44:00,
2013-11-14 13:49:00,58.6,18.8,30.22,North,0,0.0,0.0,21,0.00,,,0.00,WUHU216HW,2013-11-14 18:49:00,
2013-11-14 13:54:00,58.8,19.0,30.22,North,0,0.0,0.0,21,0.00,,,0.00,WUHU216HW,2013-11-14 18:54:00,
2013-11-14 13:59:00,59.3,19.4,30.22,North,0,0.0,0.0,21,0.00,,,0.00,WUHU216HW,2013-11-14 18:59:00,
2013-11-14 14:04:00,59.5,19.6,30.22,North,0,0.0,0.0,21,0.00,,,0.00,WUHU216HW,2013-11-14 19:04:00,
2013-11-14 14:10:00,59.5,19.6,30.22,North,0,0.0,0.0,21,0.00,,,0.00,WUHU216HW,2013-11-14 19:10:00,
2013-11-14 14:15:00,59.5,19.6,30.22,North,0,0.0,0.0,21,0.00,,,0.00,WUHU216HW,2013-11-14 19:15:00,
2013-11-14 14:20:00,59.5,19.6,30.22,North,0,0.0,0.0,21,0.00,,,0.00,WUHU216HW,2013-11-14 19:20:00,
2013-11-14 14:25:00,59.5,19.6,30.22,North,0,0.0,0.0,21,0.00,,,0.00,WUHU216HW,2013-11-14 19:25:00,
2013-11-14 14:30:00,59.3,20.5,30.22,North,0,0.0,0.0,22,0.00,,,0.00,WUHU216HW,2013-11-14 19:30:00,
2013-11-14 14:35:00,59.3,20.5,30.22,North,0,0.0,0.0,22,0.00,,,0.00,WUHU216HW,2013-11-14 19:35:00,
2013-11-14 14:40:00,59.1,20.3,30.22,North,0,0.0,0.0,22,0.00,,,0.00,WUHU216HW,2013-11-14 19:40:00,
2013-11-14 14:45:00,58.8,20.0,30.22,North,0,0.0,0.0,22,0.00,,,0.00,WUHU216HW,2013-11-14 19:45:00,
2013-11-14 14:50:00,58.8,19.0,30.22,North,0,0.0,0.0,21,0.00,,,0.00,WUHU216HW,2013-11-14 19:50:00,
2013-11-14 14:55:00,58.8,20.0,30.22,North,0,0.0,0.0,22,0.00,,,0.00,WUHU216HW,2013-11-14 19:55:00,
2013-11-14 15:00:00,58.8,19.0,30.21,North,0,0.0,0.0,21,0.00,,,0.00,WUHU216HW,2013-11-14 20:00:00,
2013-11-14 15:05:00,58.8,19.0,30.21,North,0,0.0,0.0,21,0.00,,,0.00,WUHU216HW,2013-11-14 20:05:00,
2013-11-14 15:11:00,58.8,20.0,30.21,North,0,0.0,0.0,22,0.00,,,0.00,WUHU216HW,2013-11-14 20:11:00,
2013-11-14 15:16:00,58.8,20.0,30.21,North,0,0.0,0.0,22,0.00,,,0.00,WUHU216HW,2013-11-14 20:16:00,
2013-11-14 15:21:00,58.8,20.0,30.21,North,0,0.0,0.0,22,0.00,,,0.00,WUHU216HW,2013-11-14 20:21:00,
2013-11-14 15:26:00,58.8,20.0,30.21,North,0,0.0,0.0,22,0.00,,,0.00,WUHU216HW,2013-11-14 20:26:00,
2013-11-14 15:31:00,58.6,19.9,30.21,North,0,0.0,0.0,22,0.00,,,0.00,WUHU216HW,2013-11-14 20:31:00,
2013-11-14 15:36:00,58.6,19.9,30.21,North,0,0.0,0.0,22,0.00,,,0.00,WUHU216HW,2013-11-14 20:36:00,
2013-11-14 15:41:00,58.6,19.9,30.21,North,0,0.0,0.0,22,0.00,,,0.00,WUHU216HW,2013-11-14 20:41:00,
2013-11-14 15:46:00,58.2,19.5,30.21,North,0,0.0,0.0,22,0.00,,,0.00,WUHU216HW,2013-11-14 20:46:00,
2013-11-14 15:51:00,58.1,19.4,30.21,North,0,0.0,0.0,22,0.00,,,0.00,WUHU216HW,2013-11-14 20:51:00,
2013-11-14 15:56:00,57.9,20.3,30.21,North,0,0.0,0.0,23,0.00,,,0.00,WUHU216HW,2013-11-14 20:56:00,
2013-11-14 16:01:00,57.5,18.9,30.22,North,0,0.0,0.0,22,0.00,,,0.00,WUHU216HW,2013-11-14 21:01:00,
2013-11-14 16:06:00,57.5,18.9,30.21,North,0,0.0,0.0,22,0.00,,,0.00,WUHU216HW,2013-11-14 21:06:00,
2013-11-14 16:11:00,57.3,18.8,30.22,North,0,0.0,0.0,22,0.00,,,0.00,WUHU216HW,2013-11-14 21:11:00,
2013-11-14 16:17:00,57.0,19.5,30.21,North,0,0.0,0.0,23,0.00,,,0.00,WUHU216HW,2013-11-14 21:17:00,
2013-11-14 16:22:00,57.0,19.5,30.21,North,0,0.0,0.0,23,0.00,,,0.00,WUHU216HW,2013-11-14 21:22:00,
2013-11-14 16:27:00,56.8,20.4,30.22,North,0,0.0,0.0,24,0.00,,,0.00,WUHU216HW,2013-11-14 21:27:00,
2013-11-14 16:32:00,56.1,18.8,30.21,North,0,0.0,0.0,23,0.00,,,0.00,WUHU216HW,2013-11-14 21:32:00,
2013-11-14 16:37:00,55.9,18.6,30.21,North,0,0.0,0.0,23,0.00,,,0.00,WUHU216HW,2013-11-14 21:37:00,
2013-11-14 16:42:00,55.2,18.0,30.21,North,0,0.0,0.0,23,0.00,,,0.00,WUHU216HW,2013-11-14 21:42:00,
2013-11-14 16:47:00,55.0,18.8,30.21,North,0,0.0,0.0,24,0.00,,,0.00,WUHU216HW,2013-11-14 21:47:00,
2013-11-14 16:52:00,54.6,18.5,30.22,North,0,0.0,0.0,24,0.00,,,0.00,WUHU216HW,2013-11-14 21:52:00,
2013-11-14 16:57:00,54.3,18.2,30.22,North,0,0.0,0.0,24,0.00,,,0.00,WUHU216HW,2013-11-14 21:57:00,
2013-11-14 17:02:00,53.9,18.8,30.22,North,0,0.0,0.0,25,0.00,,,0.00,WUHU216HW,2013-11-14 22:02:00,
2013-11-14 17:07:00,53.6,18.6,30.21,North,0,0.0,0.0,25,0.00,,,0.00,WUHU216HW,2013-11-14 22:07:00,
2013-11-14 17:12:00,53.2,18.2,30.22,North,0,0.0,0.0,25,0.00,,,0.00,WUHU216HW,2013-11-14 22:12:00,
2013-11-14 17:17:00,52.8,17.9,30.22,North,0,0.0,0.0,25,0.00,,,0.00,WUHU216HW,2013-11-14 22:17:00,
2013-11-14 17:22:00,52.5,18.5,30.22,North,0,0.0,0.0,26,0.00,,,0.00,WUHU216HW,2013-11-14 22:22:00,
2013-11-14 17:28:00,51.9,18.0,30.22,North,0,0.0,0.0,26,0.00,,,0.00,WUHU216HW,2013-11-14 22:28:00,
2013-11-14 17:33:00,51.6,17.8,30.22,North,0,0.0,0.0,26,0.00,,,0.00,WUHU216HW,2013-11-14 22:33:00,
2013-11-14 17:38:00,51.2,18.3,30.22,North,0,0.0,0.0,27,0.00,,,0.00,WUHU216HW,2013-11-14 22:38:00,
2013-11-14 17:43:00,50.3,18.3,30.22,North,0,0.0,0.0,28,0.00,,,0.00,WUHU216HW,2013-11-14 22:43:00,
2013-11-14 17:48:00,50.1,18.2,30.22,North,0,0.0,0.0,28,0.00,,,0.00,WUHU216HW,2013-11-14 22:48:00,
2013-11-14 17:53:00,49.8,18.7,30.22,North,0,0.0,0.0,29,0.00,,,0.00,WUHU216HW,2013-11-14 22:53:00,
2013-11-14 17:58:00,49.4,18.4,30.22,North,0,0.0,0.0,29,0.00,,,0.00,WUHU216HW,2013-11-14 22:58:00,
2013-11-14 18:03:00,49.1,18.9,30.22,North,0,0.0,0.0,30,0.00,,,0.00,WUHU216HW,2013-11-14 23:03:00,
2013-11-14 18:08:00,48.9,18.7,30.22,North,0,0.0,0.0,30,0.00,,,0.00,WUHU216HW,2013-11-14 23:08:00,
2013-11-14 18:13:00,48.7,19.3,30.22,North,0,0.0,0.0,31,0.00,,,0.00,WUHU216HW,2013-11-14 23:13:00,
2013-11-14 18:18:00,48.3,18.9,30.22,North,0,0.0,0.0,31,0.00,,,0.00,WUHU216HW,2013-11-14 23:18:00,
2013-11-14 18:23:00,48.0,18.7,30.22,North,0,0.0,0.0,31,0.00,,,0.00,WUHU216HW,2013-11-14 23:23:00,
2013-11-14 18:28:00,47.8,18.5,30.22,North,0,0.0,0.0,31,0.00,,,0.00,WUHU216HW,2013-11-14 23:28:00,
2013-11-14 18:33:00,47.4,18.9,30.22,North,0,0.0,0.0,32,0.00,,,0.00,WUHU216HW,2013-11-14 23:33:00,
2013-11-14 18:38:00,47.3,18.8,30.22,North,0,0.0,0.0,32,0.00,,,0.00,WUHU216HW,2013-11-14 23:38:00,
2013-11-14 18:43:00,47.1,18.6,30.22,North,0,0.0,0.0,32,0.00,,,0.00,WUHU216HW,2013-11-14 23:43:00,
2013-11-14 18:48:00,46.5,18.8,30.22,North,0,0.0,0.0,33,0.00,,,0.00,WUHU216HW,2013-11-14 23:48:00,
2013-11-14 18:54:00,46.2,18.5,30.22,North,0,0.0,0.0,33,0.00,,,0.00,WUHU216HW,2013-11-14 23:54:00,
2013-11-14 18:59:00,46.0,18.4,30.22,North,0,0.0,0.0,33,0.00,,,0.00,WUHU216HW,2013-11-14 23:59:00,
2013-11-14 19:04:00,45.1,18.3,30.22,North,0,0.0,0.0,34,0.00,,,0.00,WUHU216HW,2013-11-15 00:04:00,
2013-11-14 19:09:00,44.9,18.1,30.22,North,0,0.0,0.0,34,0.00,,,0.00,WUHU216HW,2013-11-15 00:09:00,
2013-11-14 19:14:00,44.9,18.1,30.22,North,0,0.0,0.0,34,0.00,,,0.00,WUHU216HW,2013-11-15 00:14:00,
2013-11-14 19:19:00,44.9,18.1,30.22,North,0,0.0,0.0,34,0.00,,,0.00,WUHU216HW,2013-11-15 00:19:00,
2013-11-14 19:24:00,44.9,18.8,30.22,North,0,0.0,0.0,35,0.00,,,0.00,WUHU216HW,2013-11-15 00:24:00,
2013-11-14 19:29:00,44.4,19.0,30.22,North,0,0.0,0.0,36,0.00,,,0.00,WUHU216HW,2013-11-15 00:29:00,
2013-11-14 19:34:00,43.1,19.1,30.22,North,0,0.0,0.0,38,0.00,,,0.00,WUHU216HW,2013-11-15 00:34:00,
2013-11-14 19:39:00,42.6,19.3,30.22,North,0,0.0,0.0,39,0.00,,,0.00,WUHU216HW,2013-11-15 00:39:00,
2013-11-14 19:44:00,41.9,19.2,30.22,North,0,0.0,0.0,40,0.00,,,0.00,WUHU216HW,2013-11-15 00:44:00,
2013-11-14 19:49:00,41.7,19.7,30.22,North,0,0.0,0.0,41,0.00,,,0.00,WUHU216HW,2013-11-15 00:49:00,
2013-11-14 19:54:00,41.5,19.5,30.22,North,0,0.0,0.0,41,0.00,,,0.00,WUHU216HW,2013-11-15 00:54:00,
2013-11-14 19:59:00,41.3,19.3,30.23,North,0,0.0,0.0,41,0.00,,,0.00,WUHU216HW,2013-11-15 00:59:00,
2013-11-14 20:04:00,41.3,19.9,30.22,North,0,0.0,0.0,42,0.00,,,0.00,WUHU216HW,2013-11-15 01:04:00,
2013-11-14 20:09:00,40.6,19.8,30.22,North,0,0.0,0.0,43,0.00,,,0.00,WUHU216HW,2013-11-15 01:09:00,
2013-11-14 20:14:00,40.1,19.3,30.22,North,0,0.0,0.0,43,0.00,,,0.00,WUHU216HW,2013-11-15 01:14:00,
2013-11-14 20:19:00,39.9,19.7,30.22,North,0,0.0,0.0,44,0.00,,,0.00,WUHU216HW,2013-11-15 01:19:00,
2013-11-14 20:24:00,39.3,19.7,30.22,North,0,0.0,0.0,45,0.00,,,0.00,WUHU216HW,2013-11-15 01:24:00,
2013-11-14 20:29:00,39.0,19.4,30.21,North,0,0.0,0.0,45,0.00,,,0.00,WUHU216HW,2013-11-15 01:29:00,
2013-11-14 20:34:00,38.8,19.8,30.22,North,0,0.0,0.0,46,0.00,,,0.00,WUHU216HW,2013-11-15 01:34:00,
2013-11-14 20:39:00,38.4,19.4,30.22,North,0,0.0,0.0,46,0.00,,,0.00,WUHU216HW,2013-11-15 01:39:00,
2013-11-14 20:44:00,38.4,19.9,30.22,North,0,0.0,0.0,47,0.00,,,0.00,WUHU216HW,2013-11-15 01:44:00,
2013-11-14 20:49:00,38.1,20.2,30.22,North,0,0.0,0.0,48,0.00,,,0.00,WUHU216HW,2013-11-15 01:49:00,
2013-11-14 20:54:00,37.9,20.5,30.22,North,0,0.0,0.0,49,0.00,,,0.00,WUHU216HW,2013-11-15 01:54:00,
2013-11-14 21:00:00,37.7,20.3,30.22,North,0,0.0,0.0,49,0.00,,,0.00,WUHU216HW,2013-11-15 02:00:00,
2013-11-14 21:05:00,37.5,20.1,30.22,North,0,0.0,0.0,49,0.00,,,0.00,WUHU216HW,2013-11-15 02:05:00,
2013-11-14 21:10:00,37.2,19.8,30.22,North,0,0.0,0.0,49,0.00,,,0.00,WUHU216HW,2013-11-15 02:10:00,
2013-11-14 21:15:00,37.2,20.3,30.22,North,0,0.0,0.0,50,0.00,,,0.00,WUHU216HW,2013-11-15 02:15:00,
2013-11-14 21:20:00,36.8,20.0,30.22,North,0,0.0,0.0,50,0.00,,,0.00,WUHU216HW,2013-11-15 02:20:00,
2013-11-14 21:25:00,36.6,19.8,30.22,North,0,0.0,0.0,50,0.00,,,0.00,WUHU216HW,2013-11-15 02:25:00,
2013-11-14 21:30:00,36.3,20.0,30.22,North,0,0.0,0.0,51,0.00,,,0.00,WUHU216HW,2013-11-15 02:30:00,
2013-11-14 21:35:00,35.6,19.3,30.22,North,0,0.0,0.0,51,0.00,,,0.00,WUHU216HW,2013-11-15 02:35:00,
2013-11-14 21:40:00,35.4,19.6,30.22,North,0,0.0,0.0,52,0.00,,,0.00,WUHU216HW,2013-11-15 02:40:00,
2013-11-14 21:45:00,35.2,19.4,30.22,North,0,0.0,0.0,52,0.00,,,0.00,WUHU216HW,2013-11-15 02:45:00,
2013-11-14 21:50:00,35.4,19.6,30.22,North,0,0.0,0.0,52,0.00,,,0.00,WUHU216HW,2013-11-15 02:50:00,
2013-11-14 21:55:00,35.4,19.6,30.22,North,0,0.0,0.0,52,0.00,,,0.00,WUHU216HW,2013-11-15 02:55:00,
2013-11-14 22:00:00,35.4,19.6,30.22,North,0,0.0,0.0,52,0.00,,,0.00,WUHU216HW,2013-11-15 03:00:00,
2013-11-14 22:06:00,35.4,19.6,30.22,North,0,0.0,0.0,52,0.00,,,0.00,WUHU216HW,2013-11-15 03:06:00,
2013-11-14 22:11:00,35.4,19.6,30.22,North,0,0.0,0.0,52,0.00,,,0.00,WUHU216HW,2013-11-15 03:11:00,
2013-11-14 22:16:00,35.4,19.6,30.22,North,0,0.0,0.0,52,0.00,,,0.00,WUHU216HW,2013-11-15 03:16:00,
2013-11-14 22:21:00,35.4,19.6,30.22,North,0,0.0,0.0,52,0.00,,,0.00,WUHU216HW,2013-11-15 03:21:00,
2013-11-14 22:26:00,35.2,19.4,30.22,North,0,0.0,0.0,52,0.00,,,0.00,WUHU216HW,2013-11-15 03:26:00,
2013-11-14 22:31:00,35.2,19.4,30.22,North,0,0.0,0.0,52,0.00,,,0.00,WUHU216HW,2013-11-15 03:31:00,
2013-11-14 22:36:00,35.0,19.2,30.22,North,0,0.0,0.0,52,0.00,,,0.00,WUHU216HW,2013-11-15 03:36:00,
2013-11-14 22:41:00,35.0,19.7,30.22,North,0,0.0,0.0,53,0.00,,,0.00,WUHU216HW,2013-11-15 03:41:00,
2013-11-14 22:46:00,34.8,19.5,30.22,North,0,0.0,0.0,53,0.00,,,0.00,WUHU216HW,2013-11-15 03:46:00,
2013-11-14 22:51:00,34.8,19.5,30.22,North,0,0.0,0.0,53,0.00,,,0.00,WUHU216HW,2013-11-15 03:51:00,
2013-11-14 22:56:00,35.0,19.7,30.21,North,0,0.0,0.0,53,0.00,,,0.00,WUHU216HW,2013-11-15 03:56:00,
2013-11-14 23:01:00,34.7,19.9,30.22,North,0,0.0,0.0,54,0.00,,,0.00,WUHU216HW,2013-11-15 04:01:00,
2013-11-14 23:06:00,34.3,19.9,30.21,North,0,0.0,0.0,55,0.00,,,0.00,WUHU216HW,2013-11-15 04:06:00,
2013-11-14 23:11:00,33.9,19.6,30.21,North,0,0.0,0.0,55,0.00,,,0.00,WUHU216HW,2013-11-15 04:11:00,
2013-11-14 23:16:00,33.9,19.6,30.21,North,0,0.0,0.0,55,0.00,,,0.00,WUHU216HW,2013-11-15 04:16:00,
2013-11-14 23:22:00,33.8,19.9,30.21,North,0,0.0,0.0,56,0.00,,,0.00,WUHU216HW,2013-11-15 04:22:00,
2013-11-14 23:27:00,33.4,19.9,30.21,North,0,0.0,0.0,57,0.00,,,0.00,WUHU216HW,2013-11-15 04:27:00,
2013-11-14 23:32:00,33.0,19.6,30.20,North,0,0.0,0.0,57,0.00,,,0.00,WUHU216HW,2013-11-15 04:32:00,
2013-11-14 23:37:00,32.7,19.7,30.20,North,0,0.0,0.0,58,0.00,,,0.00,WUHU216HW,2013-11-15 04:37:00,
2013-11-14 23:42:00,32.3,19.3,30.20,North,0,0.0,0.0,58,0.00,,,0.00,WUHU216HW,2013-11-15 04:42:00,
2013-11-14 23:47:00,32.3,19.3,30.20,North,0,0.0,0.0,58,0.00,,,0.00,WUHU216HW,2013-11-15 04:47:00,
2013-11-14 23:52:00,32.3,19.3,30.20,North,0,0.0,0.0,58,0.00,,,0.00,WUHU216HW,2013-11-15 04:52:00,
2013-11-14 23:57:00,32.3,19.7,30.20,North,0,0.0,0.0,59,0.00,,,0.00,WUHU216HW,2013-11-15 04:57:00,